createdAt,value
2023-08-14T00:06:13.431Z,101123.56
2023-08-14T00:13:19.815Z,101122.91
2023-08-14T00:20:21.416Z,101132.38
2023-08-14T00:27:23.763Z,101130.97
2023-08-14T00:34:25.388Z,101126.84
2023-08-14T00:41:27.126Z,101118.88
2023-08-14T00:48:28.901Z,101130.50
2023-08-14T00:55:30.548Z,101119.50
2023-08-14T01:02:32.825Z,101113.31
2023-08-14T01:09:34.455Z,101116.06
2023-08-14T01:16:38.521Z,101125.16
2023-08-14T01:23:53.853Z,101119.41
2023-08-14T01:30:55.645Z,101124.84
2023-08-14T01:38:04.126Z,101129.81
2023-08-14T01:45:13.573Z,101128.03
2023-08-14T01:52:15.109Z,101131.47
2023-08-14T01:59:16.847Z,101130.28
2023-08-14T02:06:18.474Z,101123.59
2023-08-14T02:13:20.155Z,101117.22
2023-08-14T02:20:21.767Z,101114.63
2023-08-14T02:27:23.419Z,101113.56
2023-08-14T02:34:43.882Z,101113.03
2023-08-14T02:41:46.147Z,101111.91
2023-08-14T02:48:48.097Z,101121.47
2023-08-14T02:55:53.677Z,101120.38
2023-08-14T03:02:55.342Z,101115.00
2023-08-14T03:09:57.604Z,101114.03
2023-08-14T03:16:59.294Z,101121.00
2023-08-14T03:24:04.713Z,101128.03
2023-08-14T03:31:07.865Z,101132.75
2023-08-14T03:38:09.673Z,101120.31
2023-08-14T03:45:11.601Z,101128.63
2023-08-14T03:52:13.378Z,101122.75
2023-08-14T03:59:15.593Z,101135.94
2023-08-14T04:06:19.469Z,101131.22
2023-08-14T04:13:21.252Z,101128.78
2023-08-14T04:20:24.044Z,101131.69
2023-08-14T04:27:25.906Z,101130.97
2023-08-14T04:34:27.611Z,101130.97
2023-08-14T04:41:29.988Z,101131.84
2023-08-14T04:48:31.827Z,101135.84
2023-08-14T04:55:34.372Z,101138.28
2023-08-14T05:02:36.215Z,101130.28
2023-08-14T05:09:38.547Z,101139.22
2023-08-14T05:16:40.613Z,101142.22
2023-08-14T05:23:44.167Z,101139.22
2023-08-14T05:30:45.935Z,101151.72
2023-08-14T05:37:47.545Z,101152.13
2023-08-14T05:44:49.164Z,101149.38
2023-08-14T05:51:50.761Z,101159.63
2023-08-14T05:58:52.459Z,101157.09
2023-08-14T06:05:54.231Z,101157.31
2023-08-14T06:12:55.906Z,101158.16
2023-08-14T06:19:57.581Z,101161.69
2023-08-14T06:26:59.257Z,101161.16
2023-08-14T06:34:00.872Z,101154.16
2023-08-14T06:41:03.052Z,101169.22
2023-08-14T06:48:05.122Z,101173.63
2023-08-14T06:55:07.067Z,101172.28
2023-08-14T07:02:08.728Z,101172.84
2023-08-14T07:09:10.761Z,101171.25
2023-08-14T07:16:12.420Z,101164.56
2023-08-14T07:23:15.945Z,101155.97
2023-08-14T07:30:17.571Z,101153.56
2023-08-14T07:37:19.208Z,101151.88
2023-08-14T07:44:20.839Z,101149.84
2023-08-14T07:51:22.484Z,101157.25
2023-08-14T07:58:24.105Z,101160.13
2023-08-14T08:05:25.756Z,101164.22
2023-08-14T08:12:27.428Z,101180.25
2023-08-14T08:19:29.075Z,101180.53
2023-08-14T08:26:30.844Z,101184.88
2023-08-14T08:33:32.576Z,101182.31
2023-08-14T08:40:34.237Z,101180.72
2023-08-14T08:47:38.344Z,101167.50
2023-08-14T08:54:40.090Z,101157.72
2023-08-14T09:01:42.082Z,101165.16
2023-08-14T09:08:43.784Z,101148.84
2023-08-14T09:15:45.925Z,101142.13
2023-08-14T09:22:48.083Z,101144.75
2023-08-14T09:29:52.227Z,101135.06
2023-08-14T09:36:53.836Z,101139.88
2023-08-14T09:43:55.472Z,101127.31
2023-08-14T09:50:57.164Z,101129.38
2023-08-14T09:57:59.054Z,101133.84
2023-08-14T10:05:01.406Z,101122.34
2023-08-14T10:12:05.510Z,101123.13
2023-08-14T10:19:10.475Z,101144.28
2023-08-14T10:26:12.152Z,101143.78
2023-08-14T10:33:14.024Z,101127.38
2023-08-14T10:40:25.710Z,101134.50
2023-08-14T10:47:27.334Z,101129.97
2023-08-14T10:54:28.969Z,101117.56
2023-08-14T11:01:36.191Z,101113.31
2023-08-14T11:08:37.807Z,101113.31
2023-08-14T11:15:40.165Z,101093.69
2023-08-14T11:22:45.584Z,101101.69
2023-08-14T11:29:53.430Z,101091.78
2023-08-14T11:44:06.860Z,101060.91
2023-08-14T11:51:08.612Z,101068.25
2023-08-14T11:58:10.284Z,101062.66
2023-08-14T12:05:11.893Z,101057.53
2023-08-14T12:12:13.620Z,101050.19
2023-08-14T12:19:15.220Z,101047.72
2023-08-14T12:26:17.012Z,101036.75
2023-08-14T12:33:18.661Z,101025.78
2023-08-14T12:40:20.310Z,101028.09
2023-08-14T12:47:22.297Z,101005.94
2023-08-14T12:54:24.414Z,100998.00
2023-08-14T13:01:26.174Z,100988.69
2023-08-14T13:08:27.861Z,100995.84
2023-08-14T13:15:29.450Z,100990.66
2023-08-14T13:22:31.071Z,100998.63
2023-08-14T13:29:32.884Z,101009.66
2023-08-14T13:36:34.496Z,101007.47
2023-08-14T13:43:36.155Z,100994.91
2023-08-14T13:50:38.563Z,100994.09
2023-08-14T13:57:41.133Z,100993.34
2023-08-14T14:04:43.101Z,100999.56
2023-08-14T14:11:44.734Z,100983.78
2023-08-14T14:18:46.320Z,100979.81
2023-08-14T14:25:48.027Z,100977.34
2023-08-14T14:32:49.726Z,100977.28
2023-08-14T14:39:51.374Z,100978.41
2023-08-14T14:46:53.010Z,100975.88
2023-08-14T14:53:54.658Z,100967.34
2023-08-14T15:00:56.266Z,100973.22
2023-08-14T15:07:58.542Z,100966.75
2023-08-14T15:15:00.241Z,100944.03
2023-08-14T15:22:02.063Z,100940.78
2023-08-14T15:29:03.753Z,100944.81
2023-08-14T15:36:05.722Z,100939.09
2023-08-14T15:43:07.356Z,100921.78
2023-08-14T15:50:09.490Z,100936.25
2023-08-14T15:57:11.120Z,100948.38
2023-08-14T16:04:12.804Z,100953.22
2023-08-14T16:11:14.497Z,100957.38
2023-08-14T16:18:16.154Z,100967.09
2023-08-14T16:25:17.936Z,100963.03
2023-08-14T16:32:19.552Z,100956.81
2023-08-14T16:39:21.146Z,100956.31
2023-08-14T16:46:23.499Z,100961.72
2023-08-14T16:53:25.247Z,100956.75
2023-08-14T17:00:26.980Z,100947.28
2023-08-14T17:07:28.725Z,100943.31
2023-08-14T17:14:30.440Z,100933.88
2023-08-14T17:21:32.077Z,100929.66
2023-08-14T17:28:33.708Z,100957.25
2023-08-14T17:35:35.362Z,100963.53
2023-08-14T17:42:37.057Z,100966.75
2023-08-14T17:49:38.676Z,100967.84
2023-08-14T17:56:40.335Z,100958.00
2023-08-14T18:03:42.129Z,100972.94
2023-08-14T18:10:43.794Z,100976.66
2023-08-14T18:17:45.487Z,100995.78
2023-08-14T18:24:47.374Z,100983.19
2023-08-14T18:31:49.081Z,100983.25
2023-08-14T18:38:50.794Z,100980.56
2023-08-14T18:45:54.177Z,100981.38
2023-08-14T18:52:55.885Z,100977.47
2023-08-14T18:59:57.550Z,100968.50
2023-08-14T19:06:59.210Z,100956.06
2023-08-14T19:14:00.824Z,100960.47
2023-08-14T19:21:03.298Z,100953.31
2023-08-14T19:28:19.489Z,100955.09
2023-08-14T19:35:23.811Z,100963.06
2023-08-14T19:42:25.509Z,100964.22
2023-08-14T19:49:27.151Z,100961.16
2023-08-14T19:56:28.961Z,100950.94
2023-08-14T20:03:30.956Z,100948.28
2023-08-14T20:10:32.721Z,100951.50
2023-08-14T20:17:34.379Z,100944.00
2023-08-14T20:24:36.015Z,100951.81
2023-08-14T20:31:37.614Z,100949.72
2023-08-14T20:38:39.292Z,100945.81
2023-08-14T20:45:40.965Z,100946.06
2023-08-14T20:52:42.584Z,100944.66
2023-08-14T20:59:45.650Z,100944.56
2023-08-14T21:06:47.227Z,100933.41
2023-08-14T21:13:48.811Z,100947.72
2023-08-14T21:20:50.448Z,100952.06
2023-08-14T21:27:52.092Z,100960.41
2023-08-14T21:34:53.892Z,100948.66
2023-08-14T21:41:55.537Z,100946.56
2023-08-14T21:48:57.296Z,100953.78
2023-08-14T21:55:58.917Z,100939.38
2023-08-14T22:03:00.749Z,100941.50
2023-08-14T22:10:03.644Z,100939.59
2023-08-14T22:17:05.362Z,100952.19
2023-08-14T22:24:07.354Z,100943.91
2023-08-14T22:31:14.594Z,100950.13
2023-08-14T22:38:16.237Z,100948.81
2023-08-14T22:45:17.913Z,100941.25
2023-08-14T22:52:19.597Z,100944.41
2023-08-14T22:59:21.340Z,100995.28
2023-08-14T23:06:23.031Z,101040.03
2023-08-14T23:13:24.663Z,101010.50
2023-08-14T23:20:26.385Z,101061.31
2023-08-14T23:27:28.149Z,101065.88
2023-08-14T23:34:30.763Z,101099.84
2023-08-14T23:41:33.457Z,101165.72
2023-08-14T23:48:35.074Z,101124.78
2023-08-14T23:55:36.690Z,101149.75
